sensor_id;sensor_type;location;lat;lon;timestamp;P1;durP1;ratioP1;P2;durP2;ratioP2
40599;SDS011;26309;50.924;4.754;2022-10-22T00:00:09;14.15;;;4.90;;
40599;SDS011;26309;50.924;4.754;2022-10-22T00:02:37;10.38;;;3.95;;
40599;SDS011;26309;50.924;4.754;2022-10-22T00:05:03;15.30;;;4.25;;
40599;SDS011;26309;50.924;4.754;2022-10-22T00:07:29;9.40;;;3.50;;
40599;SDS011;26309;50.924;4.754;2022-10-22T00:09:55;10.75;;;4.20;;
40599;SDS011;26309;50.924;4.754;2022-10-22T00:12:21;11.95;;;3.92;;
40599;SDS011;26309;50.924;4.754;2022-10-22T00:14:47;15.18;;;3.90;;
40599;SDS011;26309;50.924;4.754;2022-10-22T00:17:13;16.90;;;3.95;;
40599;SDS011;26309;50.924;4.754;2022-10-22T00:19:39;6.75;;;3.50;;
40599;SDS011;26309;50.924;4.754;2022-10-22T00:22:05;13.32;;;3.58;;
40599;SDS011;26309;50.924;4.754;2022-10-22T00:24:32;13.43;;;3.78;;
40599;SDS011;26309;50.924;4.754;2022-10-22T00:26:59;12.35;;;3.65;;
40599;SDS011;26309;50.924;4.754;2022-10-22T00:29:25;13.48;;;4.05;;
40599;SDS011;26309;50.924;4.754;2022-10-22T00:31:51;13.23;;;3.90;;
40599;SDS011;26309;50.924;4.754;2022-10-22T00:34:18;12.45;;;3.70;;
40599;SDS011;26309;50.924;4.754;2022-10-22T00:36:45;11.27;;;3.90;;
40599;SDS011;26309;50.924;4.754;2022-10-22T00:39:13;12.02;;;3.70;;
40599;SDS011;26309;50.924;4.754;2022-10-22T00:41:44;10.60;;;3.25;;
40599;SDS011;26309;50.924;4.754;2022-10-22T00:47:15;11.13;;;3.33;;
40599;SDS011;26309;50.924;4.754;2022-10-22T00:49:43;7.97;;;3.17;;
40599;SDS011;26309;50.924;4.754;2022-10-22T00:52:10;11.38;;;3.03;;
40599;SDS011;26309;50.924;4.754;2022-10-22T00:54:37;10.55;;;3.60;;
40599;SDS011;26309;50.924;4.754;2022-10-22T00:57:04;13.00;;;3.53;;
40599;SDS011;26309;50.924;4.754;2022-10-22T00:59:30;8.13;;;3.00;;
40599;SDS011;26309;50.924;4.754;2022-10-22T01:01:57;13.30;;;3.13;;
40599;SDS011;26309;50.924;4.754;2022-10-22T01:07:00;6.10;;;3.40;;
40599;SDS011;26309;50.924;4.754;2022-10-22T01:09:30;11.95;;;3.38;;
40599;SDS011;26309;50.924;4.754;2022-10-22T01:30:53;12.73;;;3.53;;
40599;SDS011;26309;50.924;4.754;2022-10-22T01:33:22;9.18;;;2.90;;
40599;SDS011;26309;50.924;4.754;2022-10-22T01:35:50;11.63;;;3.70;;
40599;SDS011;26309;50.924;4.754;2022-10-22T01:38:18;13.95;;;3.80;;
40599;SDS011;26309;50.924;4.754;2022-10-22T01:40:48;14.25;;;3.83;;
40599;SDS011;26309;50.924;4.754;2022-10-22T01:43:15;9.50;;;3.50;;
40599;SDS011;26309;50.924;4.754;2022-10-22T01:45:43;11.88;;;3.25;;
40599;SDS011;26309;50.924;4.754;2022-10-22T01:51:02;10.10;;;3.15;;
40599;SDS011;26309;50.924;4.754;2022-10-22T01:53:51;11.30;;;3.05;;
40599;SDS011;26309;50.924;4.754;2022-10-22T02:07:49;8.57;;;3.53;;
40599;SDS011;26309;50.924;4.754;2022-10-22T02:10:23;9.57;;;3.42;;
40599;SDS011;26309;50.924;4.754;2022-10-22T02:12:51;8.63;;;2.97;;
40599;SDS011;26309;50.924;4.754;2022-10-22T02:15:19;8.98;;;3.67;;
40599;SDS011;26309;50.924;4.754;2022-10-22T02:17:48;12.93;;;3.72;;
40599;SDS011;26309;50.924;4.754;2022-10-22T02:20:16;12.85;;;3.53;;
40599;SDS011;26309;50.924;4.754;2022-10-22T02:22:44;11.40;;;3.30;;
40599;SDS011;26309;50.924;4.754;2022-10-22T02:25:11;11.32;;;3.40;;
40599;SDS011;26309;50.924;4.754;2022-10-22T02:27:39;11.40;;;3.65;;
40599;SDS011;26309;50.924;4.754;2022-10-22T02:30:11;10.55;;;3.17;;
40599;SDS011;26309;50.924;4.754;2022-10-22T02:32:42;12.73;;;3.60;;
40599;SDS011;26309;50.924;4.754;2022-10-22T02:35:15;11.52;;;3.38;;
40599;SDS011;26309;50.924;4.754;2022-10-22T02:37:43;10.35;;;3.50;;
40599;SDS011;26309;50.924;4.754;2022-10-22T02:40:10;12.88;;;4.10;;
40599;SDS011;26309;50.924;4.754;2022-10-22T02:42:36;7.68;;;2.92;;
40599;SDS011;26309;50.924;4.754;2022-10-22T02:45:04;9.98;;;3.30;;
40599;SDS011;26309;50.924;4.754;2022-10-22T02:47:30;12.52;;;3.60;;
40599;SDS011;26309;50.924;4.754;2022-10-22T02:49:59;8.70;;;3.78;;
40599;SDS011;26309;50.924;4.754;2022-10-22T02:52:25;7.40;;;3.38;;
40599;SDS011;26309;50.924;4.754;2022-10-22T02:54:51;13.60;;;3.70;;
40599;SDS011;26309;50.924;4.754;2022-10-22T02:57:17;12.13;;;3.72;;
40599;SDS011;26309;50.924;4.754;2022-10-22T02:59:43;9.70;;;3.65;;
40599;SDS011;26309;50.924;4.754;2022-10-22T03:02:09;7.93;;;3.20;;
40599;SDS011;26309;50.924;4.754;2022-10-22T03:04:35;10.43;;;3.10;;
40599;SDS011;26309;50.924;4.754;2022-10-22T03:07:00;9.20;;;3.58;;
40599;SDS011;26309;50.924;4.754;2022-10-22T03:09:26;10.93;;;3.60;;
40599;SDS011;26309;50.924;4.754;2022-10-22T03:11:52;9.55;;;3.55;;
40599;SDS011;26309;50.924;4.754;2022-10-22T03:14:18;10.27;;;3.55;;
40599;SDS011;26309;50.924;4.754;2022-10-22T03:16:44;10.48;;;3.50;;
40599;SDS011;26309;50.924;4.754;2022-10-22T03:19:09;11.18;;;3.28;;
40599;SDS011;26309;50.924;4.754;2022-10-22T03:24:29;12.85;;;3.42;;
40599;SDS011;26309;50.924;4.754;2022-10-22T03:26:59;7.95;;;3.17;;
40599;SDS011;26309;50.924;4.754;2022-10-22T03:29:25;14.43;;;3.55;;
40599;SDS011;26309;50.924;4.754;2022-10-22T03:31:52;6.45;;;2.90;;
40599;SDS011;26309;50.924;4.754;2022-10-22T03:34:18;7.45;;;3.30;;
40599;SDS011;26309;50.924;4.754;2022-10-22T03:36:45;11.23;;;3.38;;
40599;SDS011;26309;50.924;4.754;2022-10-22T03:39:12;16.52;;;3.15;;
40599;SDS011;26309;50.924;4.754;2022-10-22T03:41:41;10.23;;;3.00;;
40599;SDS011;26309;50.924;4.754;2022-10-22T03:44:08;16.25;;;3.38;;
40599;SDS011;26309;50.924;4.754;2022-10-22T03:46:35;12.20;;;3.15;;
40599;SDS011;26309;50.924;4.754;2022-10-22T03:49:01;10.93;;;3.40;;
40599;SDS011;26309;50.924;4.754;2022-10-22T03:51:27;10.13;;;3.25;;
40599;SDS011;26309;50.924;4.754;2022-10-22T03:53:53;9.75;;;2.88;;
40599;SDS011;26309;50.924;4.754;2022-10-22T03:56:19;10.07;;;2.85;;
40599;SDS011;26309;50.924;4.754;2022-10-22T03:58:46;8.70;;;2.90;;
40599;SDS011;26309;50.924;4.754;2022-10-22T04:01:12;7.78;;;3.10;;
40599;SDS011;26309;50.924;4.754;2022-10-22T04:03:38;10.73;;;3.13;;
40599;SDS011;26309;50.924;4.754;2022-10-22T04:06:05;8.30;;;3.60;;
40599;SDS011;26309;50.924;4.754;2022-10-22T04:08:37;9.65;;;2.85;;
40599;SDS011;26309;50.924;4.754;2022-10-22T04:11:05;14.40;;;3.22;;
40599;SDS011;26309;50.924;4.754;2022-10-22T04:13:32;9.00;;;2.88;;
40599;SDS011;26309;50.924;4.754;2022-10-22T04:16:20;13.23;;;2.95;;
40599;SDS011;26309;50.924;4.754;2022-10-22T04:18:48;6.30;;;2.67;;
40599;SDS011;26309;50.924;4.754;2022-10-22T04:21:15;11.05;;;3.03;;
40599;SDS011;26309;50.924;4.754;2022-10-22T04:23:45;9.30;;;3.03;;
40599;SDS011;26309;50.924;4.754;2022-10-22T04:26:12;12.48;;;3.08;;
40599;SDS011;26309;50.924;4.754;2022-10-22T04:28:39;12.40;;;2.88;;
40599;SDS011;26309;50.924;4.754;2022-10-22T04:31:09;14.07;;;2.75;;
40599;SDS011;26309;50.924;4.754;2022-10-22T04:33:36;12.20;;;3.30;;
40599;SDS011;26309;50.924;4.754;2022-10-22T04:36:07;11.48;;;3.63;;
40599;SDS011;26309;50.924;4.754;2022-10-22T04:38:37;9.70;;;2.92;;
40599;SDS011;26309;50.924;4.754;2022-10-22T04:41:11;15.63;;;2.83;;
40599;SDS011;26309;50.924;4.754;2022-10-22T04:43:43;11.63;;;3.00;;
40599;SDS011;26309;50.924;4.754;2022-10-22T04:46:10;10.30;;;2.22;;
40599;SDS011;26309;50.924;4.754;2022-10-22T04:48:38;9.82;;;2.70;;
40599;SDS011;26309;50.924;4.754;2022-10-22T04:51:06;10.32;;;2.33;;
40599;SDS011;26309;50.924;4.754;2022-10-22T04:53:33;11.85;;;2.88;;
40599;SDS011;26309;50.924;4.754;2022-10-22T04:58:50;12.55;;;2.67;;
40599;SDS011;26309;50.924;4.754;2022-10-22T05:01:20;13.02;;;3.25;;
40599;SDS011;26309;50.924;4.754;2022-10-22T05:03:52;10.32;;;2.50;;
40599;SDS011;26309;50.924;4.754;2022-10-22T05:06:19;8.07;;;2.85;;
40599;SDS011;26309;50.924;4.754;2022-10-22T05:08:46;13.55;;;2.78;;
40599;SDS011;26309;50.924;4.754;2022-10-22T05:11:17;9.68;;;2.50;;
40599;SDS011;26309;50.924;4.754;2022-10-22T05:13:44;15.20;;;2.72;;
40599;SDS011;26309;50.924;4.754;2022-10-22T05:16:10;9.65;;;2.65;;
40599;SDS011;26309;50.924;4.754;2022-10-22T05:18:36;11.90;;;2.75;;
40599;SDS011;26309;50.924;4.754;2022-10-22T05:21:03;7.35;;;2.60;;
40599;SDS011;26309;50.924;4.754;2022-10-22T05:23:33;10.48;;;2.95;;
40599;SDS011;26309;50.924;4.754;2022-10-22T05:26:03;7.82;;;2.63;;
40599;SDS011;26309;50.924;4.754;2022-10-22T05:28:30;11.85;;;2.38;;
40599;SDS011;26309;50.924;4.754;2022-10-22T05:30:56;9.35;;;2.22;;
40599;SDS011;26309;50.924;4.754;2022-10-22T05:33:24;10.10;;;2.60;;
40599;SDS011;26309;50.924;4.754;2022-10-22T05:35:50;14.32;;;2.97;;
40599;SDS011;26309;50.924;4.754;2022-10-22T05:38:16;10.50;;;2.72;;
40599;SDS011;26309;50.924;4.754;2022-10-22T05:40:43;7.50;;;2.13;;
40599;SDS011;26309;50.924;4.754;2022-10-22T05:43:09;11.10;;;2.30;;
40599;SDS011;26309;50.924;4.754;2022-10-22T05:45:36;10.73;;;2.58;;
40599;SDS011;26309;50.924;4.754;2022-10-22T05:48:03;6.90;;;2.15;;
40599;SDS011;26309;50.924;4.754;2022-10-22T05:50:29;11.48;;;2.38;;
40599;SDS011;26309;50.924;4.754;2022-10-22T05:52:56;8.35;;;2.22;;
40599;SDS011;26309;50.924;4.754;2022-10-22T05:55:22;11.68;;;2.30;;
40599;SDS011;26309;50.924;4.754;2022-10-22T05:57:47;11.57;;;2.33;;
40599;SDS011;26309;50.924;4.754;2022-10-22T06:00:14;14.30;;;2.28;;
40599;SDS011;26309;50.924;4.754;2022-10-22T06:02:40;7.50;;;2.20;;
40599;SDS011;26309;50.924;4.754;2022-10-22T06:05:06;11.13;;;2.55;;
40599;SDS011;26309;50.924;4.754;2022-10-22T06:07:32;9.60;;;2.20;;
40599;SDS011;26309;50.924;4.754;2022-10-22T06:09:59;12.45;;;2.40;;
40599;SDS011;26309;50.924;4.754;2022-10-22T06:12:25;9.35;;;2.40;;
40599;SDS011;26309;50.924;4.754;2022-10-22T06:14:51;9.45;;;1.90;;
40599;SDS011;26309;50.924;4.754;2022-10-22T06:17:17;8.68;;;2.28;;
40599;SDS011;26309;50.924;4.754;2022-10-22T06:19:44;8.02;;;2.10;;
40599;SDS011;26309;50.924;4.754;2022-10-22T06:22:10;8.38;;;2.38;;
40599;SDS011;26309;50.924;4.754;2022-10-22T06:24:35;12.38;;;2.40;;
40599;SDS011;26309;50.924;4.754;2022-10-22T06:27:01;12.38;;;2.30;;
40599;SDS011;26309;50.924;4.754;2022-10-22T06:29:27;15.10;;;2.47;;
40599;SDS011;26309;50.924;4.754;2022-10-22T06:31:53;10.25;;;2.10;;
40599;SDS011;26309;50.924;4.754;2022-10-22T06:34:18;12.68;;;2.58;;
40599;SDS011;26309;50.924;4.754;2022-10-22T06:36:44;13.77;;;2.15;;
40599;SDS011;26309;50.924;4.754;2022-10-22T06:39:14;18.75;;;2.53;;
40599;SDS011;26309;50.924;4.754;2022-10-22T06:41:41;11.07;;;2.10;;
40599;SDS011;26309;50.924;4.754;2022-10-22T06:44:07;12.20;;;2.30;;
40599;SDS011;26309;50.924;4.754;2022-10-22T06:46:39;8.75;;;2.10;;
40599;SDS011;26309;50.924;4.754;2022-10-22T06:49:05;11.20;;;2.30;;
40599;SDS011;26309;50.924;4.754;2022-10-22T06:51:31;9.02;;;2.47;;
40599;SDS011;26309;50.924;4.754;2022-10-22T06:53:57;9.40;;;2.75;;
40599;SDS011;26309;50.924;4.754;2022-10-22T06:56:24;9.75;;;2.25;;
40599;SDS011;26309;50.924;4.754;2022-10-22T06:58:57;9.38;;;2.25;;
40599;SDS011;26309;50.924;4.754;2022-10-22T07:01:24;9.77;;;2.20;;
40599;SDS011;26309;50.924;4.754;2022-10-22T07:03:52;11.55;;;2.20;;
40599;SDS011;26309;50.924;4.754;2022-10-22T07:06:19;7.53;;;2.15;;
40599;SDS011;26309;50.924;4.754;2022-10-22T07:08:48;10.60;;;2.40;;
40599;SDS011;26309;50.924;4.754;2022-10-22T07:13:40;4.95;;;1.90;;
40599;SDS011;26309;50.924;4.754;2022-10-22T07:16:07;12.43;;;1.88;;
40599;SDS011;26309;50.924;4.754;2022-10-22T07:18:35;4.97;;;1.63;;
40599;SDS011;26309;50.924;4.754;2022-10-22T07:21:02;9.98;;;2.13;;
40599;SDS011;26309;50.924;4.754;2022-10-22T07:23:29;13.82;;;2.47;;
40599;SDS011;26309;50.924;4.754;2022-10-22T07:25:55;9.60;;;2.42;;
40599;SDS011;26309;50.924;4.754;2022-10-22T07:28:25;6.07;;;2.13;;
40599;SDS011;26309;50.924;4.754;2022-10-22T07:31:18;9.95;;;2.22;;
40599;SDS011;26309;50.924;4.754;2022-10-22T07:33:49;7.38;;;1.80;;
40599;SDS011;26309;50.924;4.754;2022-10-22T07:36:15;9.00;;;2.33;;
40599;SDS011;26309;50.924;4.754;2022-10-22T07:38:43;8.88;;;2.13;;
40599;SDS011;26309;50.924;4.754;2022-10-22T07:41:10;13.38;;;2.28;;
40599;SDS011;26309;50.924;4.754;2022-10-22T07:43:36;12.02;;;2.20;;
40599;SDS011;26309;50.924;4.754;2022-10-22T07:46:02;11.57;;;2.50;;
40599;SDS011;26309;50.924;4.754;2022-10-22T07:48:27;8.55;;;1.77;;
40599;SDS011;26309;50.924;4.754;2022-10-22T07:50:53;13.90;;;2.50;;
40599;SDS011;26309;50.924;4.754;2022-10-22T07:53:19;9.32;;;2.10;;
40599;SDS011;26309;50.924;4.754;2022-10-22T07:55:49;8.98;;;2.10;;
40599;SDS011;26309;50.924;4.754;2022-10-22T07:58:19;7.97;;;2.10;;
40599;SDS011;26309;50.924;4.754;2022-10-22T08:00:46;9.82;;;2.10;;
40599;SDS011;26309;50.924;4.754;2022-10-22T08:03:13;8.95;;;2.00;;
40599;SDS011;26309;50.924;4.754;2022-10-22T08:05:40;5.82;;;2.03;;
40599;SDS011;26309;50.924;4.754;2022-10-22T08:08:08;8.82;;;2.28;;
40599;SDS011;26309;50.924;4.754;2022-10-22T08:10:34;9.23;;;1.92;;
40599;SDS011;26309;50.924;4.754;2022-10-22T08:13:00;8.05;;;2.30;;
40599;SDS011;26309;50.924;4.754;2022-10-22T08:15:26;7.00;;;1.80;;
40599;SDS011;26309;50.924;4.754;2022-10-22T08:17:52;9.48;;;1.90;;
40599;SDS011;26309;50.924;4.754;2022-10-22T08:20:18;13.98;;;2.10;;
40599;SDS011;26309;50.924;4.754;2022-10-22T08:22:44;5.30;;;1.77;;
40599;SDS011;26309;50.924;4.754;2022-10-22T08:25:10;7.05;;;1.90;;
40599;SDS011;26309;50.924;4.754;2022-10-22T08:27:36;8.27;;;2.20;;
40599;SDS011;26309;50.924;4.754;2022-10-22T08:30:03;5.63;;;1.92;;
40599;SDS011;26309;50.924;4.754;2022-10-22T08:32:29;10.18;;;2.00;;
40599;SDS011;26309;50.924;4.754;2022-10-22T08:34:56;6.75;;;2.05;;
40599;SDS011;26309;50.924;4.754;2022-10-22T08:37:21;6.18;;;1.70;;
40599;SDS011;26309;50.924;4.754;2022-10-22T08:39:47;7.90;;;2.25;;
40599;SDS011;26309;50.924;4.754;2022-10-22T08:42:27;11.95;;;1.88;;
40599;SDS011;26309;50.924;4.754;2022-10-22T08:47:58;5.25;;;1.58;;
40599;SDS011;26309;50.924;4.754;2022-10-22T08:50:37;5.28;;;1.65;;
40599;SDS011;26309;50.924;4.754;2022-10-22T08:53:17;4.85;;;1.52;;
40599;SDS011;26309;50.924;4.754;2022-10-22T08:55:51;12.38;;;2.25;;
40599;SDS011;26309;50.924;4.754;2022-10-22T08:58:26;10.85;;;2.03;;
40599;SDS011;26309;50.924;4.754;2022-10-22T09:01:00;7.85;;;1.75;;
40599;SDS011;26309;50.924;4.754;2022-10-22T09:06:13;8.98;;;1.90;;
40599;SDS011;26309;50.924;4.754;2022-10-22T09:08:42;7.63;;;1.67;;
40599;SDS011;26309;50.924;4.754;2022-10-22T09:13:54;8.63;;;1.98;;
40599;SDS011;26309;50.924;4.754;2022-10-22T09:16:24;7.50;;;1.75;;
40599;SDS011;26309;50.924;4.754;2022-10-22T09:24:46;7.20;;;1.80;;
40599;SDS011;26309;50.924;4.754;2022-10-22T09:27:18;8.02;;;1.92;;
40599;SDS011;26309;50.924;4.754;2022-10-22T09:29:47;4.70;;;1.73;;
40599;SDS011;26309;50.924;4.754;2022-10-22T09:32:17;12.32;;;2.53;;
40599;SDS011;26309;50.924;4.754;2022-10-22T09:34:43;9.32;;;2.40;;
40599;SDS011;26309;50.924;4.754;2022-10-22T09:37:10;10.07;;;2.35;;
40599;SDS011;26309;50.924;4.754;2022-10-22T09:39:40;10.27;;;2.20;;
40599;SDS011;26309;50.924;4.754;2022-10-22T09:42:12;7.80;;;1.65;;
40599;SDS011;26309;50.924;4.754;2022-10-22T09:44:40;11.55;;;2.03;;
40599;SDS011;26309;50.924;4.754;2022-10-22T09:47:40;9.40;;;2.35;;
40599;SDS011;26309;50.924;4.754;2022-10-22T09:50:18;8.82;;;2.33;;
40599;SDS011;26309;50.924;4.754;2022-10-22T09:55:53;11.05;;;1.88;;
40599;SDS011;26309;50.924;4.754;2022-10-22T09:58:21;10.32;;;2.00;;
40599;SDS011;26309;50.924;4.754;2022-10-22T10:00:51;10.55;;;2.20;;
40599;SDS011;26309;50.924;4.754;2022-10-22T10:03:23;13.18;;;2.17;;
40599;SDS011;26309;50.924;4.754;2022-10-22T10:05:54;6.47;;;1.90;;
40599;SDS011;26309;50.924;4.754;2022-10-22T10:08:23;5.65;;;2.03;;
40599;SDS011;26309;50.924;4.754;2022-10-22T10:10:51;11.20;;;1.92;;
40599;SDS011;26309;50.924;4.754;2022-10-22T10:29:56;14.07;;;2.30;;
40599;SDS011;26309;50.924;4.754;2022-10-22T10:35:00;9.43;;;1.90;;
40599;SDS011;26309;50.924;4.754;2022-10-22T10:37:31;10.90;;;2.28;;
40599;SDS011;26309;50.924;4.754;2022-10-22T10:40:48;13.45;;;2.20;;
40599;SDS011;26309;50.924;4.754;2022-10-22T10:48:37;9.02;;;2.10;;
40599;SDS011;26309;50.924;4.754;2022-10-22T11:07:12;7.72;;;2.05;;
40599;SDS011;26309;50.924;4.754;2022-10-22T11:09:44;7.00;;;2.03;;
40599;SDS011;26309;50.924;4.754;2022-10-22T11:12:19;8.88;;;1.65;;
40599;SDS011;26309;50.924;4.754;2022-10-22T11:17:46;6.97;;;1.80;;
40599;SDS011;26309;50.924;4.754;2022-10-22T11:20:21;7.30;;;2.00;;
40599;SDS011;26309;50.924;4.754;2022-10-22T11:23:40;8.65;;;2.00;;
40599;SDS011;26309;50.924;4.754;2022-10-22T11:27:01;7.70;;;1.83;;
40599;SDS011;26309;50.924;4.754;2022-10-22T11:29:35;9.25;;;2.30;;
40599;SDS011;26309;50.924;4.754;2022-10-22T11:32:05;8.60;;;1.88;;
40599;SDS011;26309;50.924;4.754;2022-10-22T11:34:44;7.57;;;2.28;;
40599;SDS011;26309;50.924;4.754;2022-10-22T11:37:15;6.30;;;1.85;;
40599;SDS011;26309;50.924;4.754;2022-10-22T11:45:05;8.82;;;1.90;;
40599;SDS011;26309;50.924;4.754;2022-10-22T11:56:03;9.98;;;2.08;;
40599;SDS011;26309;50.924;4.754;2022-10-22T12:06:20;8.25;;;1.80;;
40599;SDS011;26309;50.924;4.754;2022-10-22T12:19:39;9.38;;;1.80;;
40599;SDS011;26309;50.924;4.754;2022-10-22T12:22:19;9.68;;;2.00;;
40599;SDS011;26309;50.924;4.754;2022-10-22T12:24:52;8.02;;;1.73;;
40599;SDS011;26309;50.924;4.754;2022-10-22T12:29:47;6.38;;;1.45;;
40599;SDS011;26309;50.924;4.754;2022-10-22T12:32:14;9.43;;;1.55;;
40599;SDS011;26309;50.924;4.754;2022-10-22T12:34:45;9.18;;;1.80;;
40599;SDS011;26309;50.924;4.754;2022-10-22T12:37:12;6.30;;;1.45;;
40599;SDS011;26309;50.924;4.754;2022-10-22T12:39:40;5.78;;;1.50;;
40599;SDS011;26309;50.924;4.754;2022-10-22T12:42:06;6.40;;;1.45;;
40599;SDS011;26309;50.924;4.754;2022-10-22T12:44:37;8.50;;;1.80;;
40599;SDS011;26309;50.924;4.754;2022-10-22T12:47:04;8.13;;;1.70;;
40599;SDS011;26309;50.924;4.754;2022-10-22T12:49:33;8.55;;;1.60;;
40599;SDS011;26309;50.924;4.754;2022-10-22T12:52:06;6.05;;;1.63;;
40599;SDS011;26309;50.924;4.754;2022-10-22T12:54:39;7.63;;;1.60;;
40599;SDS011;26309;50.924;4.754;2022-10-22T12:57:05;6.97;;;1.88;;
40599;SDS011;26309;50.924;4.754;2022-10-22T12:59:36;4.82;;;1.52;;
40599;SDS011;26309;50.924;4.754;2022-10-22T13:02:03;14.00;;;1.92;;
40599;SDS011;26309;50.924;4.754;2022-10-22T13:05:13;5.53;;;1.42;;
40599;SDS011;26309;50.924;4.754;2022-10-22T13:07:40;5.28;;;1.50;;
40599;SDS011;26309;50.924;4.754;2022-10-22T13:10:48;4.80;;;1.60;;
40599;SDS011;26309;50.924;4.754;2022-10-22T13:13:02;7.70;;;1.90;;
40599;SDS011;26309;50.924;4.754;2022-10-22T13:18:03;7.45;;;1.60;;
40599;SDS011;26309;50.924;4.754;2022-10-22T13:20:30;8.85;;;1.70;;
40599;SDS011;26309;50.924;4.754;2022-10-22T13:22:59;5.18;;;1.50;;
40599;SDS011;26309;50.924;4.754;2022-10-22T13:25:34;6.65;;;1.70;;
40599;SDS011;26309;50.924;4.754;2022-10-22T13:30:35;7.13;;;1.63;;
40599;SDS011;26309;50.924;4.754;2022-10-22T13:33:05;5.40;;;1.80;;
40599;SDS011;26309;50.924;4.754;2022-10-22T13:35:53;6.55;;;1.67;;
40599;SDS011;26309;50.924;4.754;2022-10-22T13:38:21;7.60;;;1.60;;
40599;SDS011;26309;50.924;4.754;2022-10-22T13:40:48;3.95;;;1.42;;
40599;SDS011;26309;50.924;4.754;2022-10-22T13:43:14;10.93;;;2.05;;
40599;SDS011;26309;50.924;4.754;2022-10-22T13:45:41;4.80;;;1.75;;
40599;SDS011;26309;50.924;4.754;2022-10-22T13:48:14;11.23;;;1.73;;
40599;SDS011;26309;50.924;4.754;2022-10-22T13:50:49;6.13;;;1.58;;
40599;SDS011;26309;50.924;4.754;2022-10-22T13:53:20;8.88;;;1.60;;
40599;SDS011;26309;50.924;4.754;2022-10-22T13:55:48;11.30;;;1.75;;
40599;SDS011;26309;50.924;4.754;2022-10-22T13:58:18;6.50;;;1.30;;
40599;SDS011;26309;50.924;4.754;2022-10-22T14:00:49;7.93;;;1.67;;
40599;SDS011;26309;50.924;4.754;2022-10-22T14:03:30;5.65;;;1.15;;
40599;SDS011;26309;50.924;4.754;2022-10-22T14:05:58;6.47;;;1.73;;
40599;SDS011;26309;50.924;4.754;2022-10-22T14:08:24;7.25;;;1.70;;
40599;SDS011;26309;50.924;4.754;2022-10-22T14:10:52;7.90;;;1.63;;
40599;SDS011;26309;50.924;4.754;2022-10-22T14:13:18;11.65;;;2.10;;
40599;SDS011;26309;50.924;4.754;2022-10-22T14:15:45;9.07;;;1.70;;
40599;SDS011;26309;50.924;4.754;2022-10-22T14:18:14;7.90;;;1.90;;
40599;SDS011;26309;50.924;4.754;2022-10-22T14:20:49;5.85;;;1.35;;
40599;SDS011;26309;50.924;4.754;2022-10-22T14:23:24;8.57;;;1.70;;
40599;SDS011;26309;50.924;4.754;2022-10-22T14:25:52;5.90;;;1.55;;
40599;SDS011;26309;50.924;4.754;2022-10-22T14:28:19;5.20;;;1.60;;
40599;SDS011;26309;50.924;4.754;2022-10-22T14:30:48;7.95;;;1.48;;
40599;SDS011;26309;50.924;4.754;2022-10-22T14:35:43;7.20;;;1.42;;
40599;SDS011;26309;50.924;4.754;2022-10-22T14:38:09;4.97;;;1.48;;
40599;SDS011;26309;50.924;4.754;2022-10-22T14:40:35;5.00;;;1.67;;
40599;SDS011;26309;50.924;4.754;2022-10-22T14:43:06;9.82;;;1.80;;
40599;SDS011;26309;50.924;4.754;2022-10-22T14:45:38;5.68;;;1.70;;
40599;SDS011;26309;50.924;4.754;2022-10-22T14:48:04;6.72;;;1.90;;
40599;SDS011;26309;50.924;4.754;2022-10-22T14:50:30;5.25;;;1.48;;
40599;SDS011;26309;50.924;4.754;2022-10-22T14:52:56;6.45;;;1.48;;
40599;SDS011;26309;50.924;4.754;2022-10-22T14:55:23;7.90;;;1.42;;
40599;SDS011;26309;50.924;4.754;2022-10-22T14:57:51;3.63;;;1.63;;
40599;SDS011;26309;50.924;4.754;2022-10-22T15:00:18;5.63;;;1.42;;
40599;SDS011;26309;50.924;4.754;2022-10-22T15:02:44;4.75;;;1.50;;
40599;SDS011;26309;50.924;4.754;2022-10-22T15:05:12;6.95;;;1.88;;
40599;SDS011;26309;50.924;4.754;2022-10-22T15:07:38;6.15;;;1.33;;
40599;SDS011;26309;50.924;4.754;2022-10-22T15:10:04;9.00;;;2.20;;
40599;SDS011;26309;50.924;4.754;2022-10-22T15:12:32;10.10;;;1.73;;
40599;SDS011;26309;50.924;4.754;2022-10-22T15:14:57;8.75;;;1.85;;
40599;SDS011;26309;50.924;4.754;2022-10-22T15:17:23;6.00;;;1.75;;
40599;SDS011;26309;50.924;4.754;2022-10-22T15:19:49;10.32;;;2.03;;
40599;SDS011;26309;50.924;4.754;2022-10-22T15:22:17;5.05;;;1.30;;
40599;SDS011;26309;50.924;4.754;2022-10-22T15:24:43;4.75;;;1.50;;
40599;SDS011;26309;50.924;4.754;2022-10-22T15:27:10;7.47;;;1.70;;
40599;SDS011;26309;50.924;4.754;2022-10-22T15:29:39;9.65;;;1.92;;
40599;SDS011;26309;50.924;4.754;2022-10-22T15:32:06;9.38;;;1.80;;
40599;SDS011;26309;50.924;4.754;2022-10-22T15:34:35;9.38;;;1.48;;
40599;SDS011;26309;50.924;4.754;2022-10-22T15:37:03;6.85;;;1.67;;
40599;SDS011;26309;50.924;4.754;2022-10-22T15:39:31;8.10;;;1.80;;
40599;SDS011;26309;50.924;4.754;2022-10-22T15:41:57;5.47;;;1.38;;
40599;SDS011;26309;50.924;4.754;2022-10-22T15:44:30;10.13;;;1.92;;
40599;SDS011;26309;50.924;4.754;2022-10-22T15:46:58;7.03;;;1.80;;
40599;SDS011;26309;50.924;4.754;2022-10-22T15:49:34;9.43;;;1.90;;
40599;SDS011;26309;50.924;4.754;2022-10-22T15:52:04;10.80;;;2.10;;
40599;SDS011;26309;50.924;4.754;2022-10-22T15:54:31;17.15;;;2.00;;
40599;SDS011;26309;50.924;4.754;2022-10-22T15:56:59;8.25;;;1.60;;
40599;SDS011;26309;50.924;4.754;2022-10-22T15:59:34;10.27;;;1.85;;
40599;SDS011;26309;50.924;4.754;2022-10-22T16:02:03;10.50;;;1.98;;
40599;SDS011;26309;50.924;4.754;2022-10-22T16:05:12;9.73;;;2.15;;
40599;SDS011;26309;50.924;4.754;2022-10-22T16:10:46;6.97;;;1.30;;
40599;SDS011;26309;50.924;4.754;2022-10-22T16:17:15;7.32;;;1.80;;
40599;SDS011;26309;50.924;4.754;2022-10-22T16:20:09;9.95;;;2.00;;
40599;SDS011;26309;50.924;4.754;2022-10-22T16:22:59;8.48;;;1.88;;
40599;SDS011;26309;50.924;4.754;2022-10-22T16:25:37;7.93;;;2.10;;
40599;SDS011;26309;50.924;4.754;2022-10-22T16:28:15;9.25;;;2.28;;
40599;SDS011;26309;50.924;4.754;2022-10-22T16:31:02;12.63;;;1.83;;
40599;SDS011;26309;50.924;4.754;2022-10-22T16:33:40;9.65;;;2.28;;
40599;SDS011;26309;50.924;4.754;2022-10-22T16:36:09;9.65;;;2.13;;
40599;SDS011;26309;50.924;4.754;2022-10-22T16:38:38;5.47;;;2.20;;
40599;SDS011;26309;50.924;4.754;2022-10-22T16:41:05;9.88;;;2.30;;
40599;SDS011;26309;50.924;4.754;2022-10-22T16:43:36;10.82;;;2.22;;
40599;SDS011;26309;50.924;4.754;2022-10-22T16:46:14;12.10;;;2.63;;
40599;SDS011;26309;50.924;4.754;2022-10-22T16:48:51;8.20;;;2.65;;
40599;SDS011;26309;50.924;4.754;2022-10-22T16:51:20;9.73;;;2.58;;
40599;SDS011;26309;50.924;4.754;2022-10-22T16:54:03;12.85;;;2.47;;
40599;SDS011;26309;50.924;4.754;2022-10-22T16:56:48;13.40;;;3.45;;
40599;SDS011;26309;50.924;4.754;2022-10-22T16:59:14;17.83;;;4.30;;
40599;SDS011;26309;50.924;4.754;2022-10-22T17:01:39;11.43;;;3.28;;
40599;SDS011;26309;50.924;4.754;2022-10-22T17:04:05;13.52;;;3.97;;
40599;SDS011;26309;50.924;4.754;2022-10-22T17:06:31;12.85;;;4.57;;
40599;SDS011;26309;50.924;4.754;2022-10-22T17:08:57;11.88;;;3.50;;
40599;SDS011;26309;50.924;4.754;2022-10-22T17:11:23;12.98;;;3.78;;
40599;SDS011;26309;50.924;4.754;2022-10-22T17:13:49;10.65;;;3.03;;
40599;SDS011;26309;50.924;4.754;2022-10-22T17:16:17;8.40;;;2.90;;
40599;SDS011;26309;50.924;4.754;2022-10-22T17:18:45;8.55;;;2.90;;
40599;SDS011;26309;50.924;4.754;2022-10-22T17:21:12;16.45;;;3.83;;
40599;SDS011;26309;50.924;4.754;2022-10-22T17:23:38;13.65;;;3.35;;
40599;SDS011;26309;50.924;4.754;2022-10-22T17:26:05;11.55;;;2.97;;
40599;SDS011;26309;50.924;4.754;2022-10-22T17:28:33;20.90;;;3.30;;
40599;SDS011;26309;50.924;4.754;2022-10-22T17:31:04;10.27;;;2.65;;
40599;SDS011;26309;50.924;4.754;2022-10-22T17:33:43;10.73;;;2.97;;